createdAt,value
2023-02-16T00:00:27.595Z,100569.75
2023-02-16T00:02:54.324Z,100577.88
2023-02-16T00:05:28.334Z,100590.53
2023-02-16T00:07:56.606Z,100531.72
2023-02-16T00:10:24.238Z,100606.19
2023-02-16T00:13:09.501Z,100591.38
2023-02-16T00:15:36.252Z,100542.78
2023-02-16T00:18:06.064Z,100599.66
2023-02-16T00:20:32.712Z,100560.09
2023-02-16T00:22:59.429Z,100568.59
2023-02-16T00:25:26.113Z,100582.28
2023-02-16T00:27:53.313Z,100600.00
2023-02-16T00:30:22.099Z,100555.00
2023-02-16T00:32:48.892Z,100583.00
2023-02-16T00:35:17.742Z,100599.28
2023-02-16T00:37:44.869Z,100600.09
2023-02-16T00:40:12.848Z,100599.41
2023-02-16T00:42:39.804Z,100624.25
2023-02-16T00:45:15.153Z,100590.31
2023-02-16T00:47:44.848Z,100613.25
2023-02-16T00:50:17.164Z,100627.09
2023-02-16T00:52:46.478Z,100598.91
2023-02-16T00:55:18.455Z,100603.81
2023-02-16T00:58:06.559Z,100603.75
2023-02-16T01:01:06.605Z,100592.16
2023-02-16T01:03:33.889Z,100598.97
2023-02-16T01:06:19.120Z,100560.66
2023-02-16T01:09:15.366Z,100568.50
2023-02-16T01:11:42.100Z,100600.94
2023-02-16T01:14:12.516Z,100601.00
2023-02-16T01:16:42.072Z,100580.38
2023-02-16T01:19:11.778Z,100601.75
2023-02-16T01:21:38.449Z,100599.16
2023-02-16T01:24:05.391Z,100567.56
2023-02-16T01:26:37.536Z,100590.63
2023-02-16T01:29:04.202Z,100646.31
2023-02-16T01:31:31.059Z,100593.94
2023-02-16T01:33:57.797Z,100572.72
2023-02-16T01:36:31.598Z,100624.81
2023-02-16T01:38:58.280Z,100568.41
2023-02-16T01:42:07.216Z,100624.56
2023-02-16T01:44:41.508Z,100586.38
2023-02-16T01:47:16.157Z,100576.22
2023-02-16T01:49:42.799Z,100624.91
2023-02-16T01:52:27.759Z,100634.34
2023-02-16T01:55:02.880Z,100639.47
2023-02-16T01:57:29.510Z,100634.28
2023-02-16T01:59:56.185Z,100630.88
2023-02-16T02:02:26.232Z,100622.44
2023-02-16T02:05:24.995Z,100636.34
2023-02-16T02:08:12.274Z,100582.88
2023-02-16T02:11:18.593Z,100625.31
2023-02-16T02:13:57.837Z,100624.50
2023-02-16T02:16:27.804Z,100601.47
2023-02-16T02:18:55.100Z,100576.13
2023-02-16T02:22:03.530Z,100620.63
2023-02-16T02:24:42.504Z,100630.25
2023-02-16T02:27:25.616Z,100564.59
2023-02-16T02:30:00.281Z,100632.88
2023-02-16T02:32:42.458Z,100578.81
2023-02-16T02:35:24.278Z,100622.28
2023-02-16T02:37:50.932Z,100620.72
2023-02-16T02:40:29.433Z,100611.44
2023-02-16T02:43:10.118Z,100587.03
2023-02-16T02:46:01.361Z,100589.47
2023-02-16T02:48:32.008Z,100631.31
2023-02-16T02:51:21.704Z,100616.97
2023-02-16T02:54:31.439Z,100575.22
2023-02-16T02:57:21.560Z,100567.75
2023-02-16T03:00:23.796Z,100607.75
2023-02-16T03:02:54.250Z,100621.53
2023-02-16T03:05:24.689Z,100547.13
2023-02-16T03:07:57.504Z,100597.59
2023-02-16T03:11:01.168Z,100596.00
2023-02-16T03:13:34.926Z,100592.00
2023-02-16T03:16:07.547Z,100612.06
2023-02-16T03:18:55.160Z,100596.84
2023-02-16T03:21:40.593Z,100592.50
2023-02-16T03:24:32.193Z,100610.47
2023-02-16T03:27:17.698Z,100607.09
2023-02-16T03:29:48.122Z,100591.53
2023-02-16T03:32:15.612Z,100592.56
2023-02-16T03:34:42.610Z,100567.06
2023-02-16T03:37:09.940Z,100596.09
2023-02-16T03:39:56.894Z,100562.28
2023-02-16T03:42:24.532Z,100593.88
2023-02-16T03:44:52.563Z,100559.50
2023-02-16T03:47:19.487Z,100547.75
2023-02-16T03:49:46.183Z,100550.25
2023-02-16T03:52:12.939Z,100516.81
2023-02-16T03:54:39.579Z,100553.44
2023-02-16T03:57:06.293Z,100507.13
2023-02-16T03:59:33.040Z,100512.38
2023-02-16T04:02:00.022Z,100542.38
2023-02-16T04:04:26.980Z,100517.72
2023-02-16T04:06:53.660Z,100548.69
2023-02-16T04:09:20.296Z,100513.63
2023-02-16T04:12:05.384Z,100542.31
2023-02-16T04:14:32.105Z,100527.75
2023-02-16T04:16:58.830Z,100552.44
2023-02-16T04:19:25.553Z,100531.91
2023-02-16T04:21:54.964Z,100529.03
2023-02-16T04:24:21.790Z,100544.34
2023-02-16T04:26:49.615Z,100552.88
2023-02-16T04:29:16.556Z,100558.72
2023-02-16T04:31:43.373Z,100602.53
2023-02-16T04:34:10.140Z,100558.06
2023-02-16T04:36:36.835Z,100559.06
2023-02-16T04:39:04.056Z,100611.19
2023-02-16T04:41:30.775Z,100602.63
2023-02-16T04:43:57.513Z,100553.22
2023-02-16T04:46:24.435Z,100560.59
2023-02-16T04:48:51.169Z,100577.69
2023-02-16T04:51:17.930Z,100555.47
2023-02-16T04:53:44.670Z,100553.63
2023-02-16T04:56:12.704Z,100564.78
2023-02-16T04:58:39.477Z,100544.44
2023-02-16T05:01:06.677Z,100548.81
2023-02-16T05:03:33.833Z,100562.97
2023-02-16T05:06:00.643Z,100561.16
2023-02-16T05:08:27.371Z,100575.59
2023-02-16T05:11:12.487Z,100562.88
2023-02-16T05:13:57.900Z,100556.22
2023-02-16T05:16:25.230Z,100522.56
2023-02-16T05:18:51.876Z,100574.75
2023-02-16T05:21:33.874Z,100581.56
2023-02-16T05:24:19.144Z,100604.53
2023-02-16T05:26:45.865Z,100596.16
2023-02-16T05:29:12.614Z,100574.56
2023-02-16T05:31:39.422Z,100541.91
2023-02-16T05:34:06.208Z,100601.81
2023-02-16T05:36:32.869Z,100578.97
2023-02-16T05:38:59.742Z,100596.91
2023-02-16T05:41:26.472Z,100565.50
2023-02-16T05:43:55.409Z,100528.03
2023-02-16T05:46:23.652Z,100578.53
2023-02-16T05:48:51.208Z,100564.81
2023-02-16T05:51:18.413Z,100577.75
2023-02-16T05:53:45.759Z,100591.41
2023-02-16T05:56:12.658Z,100552.78
2023-02-16T05:58:39.562Z,100561.31
2023-02-16T06:01:06.457Z,100560.47
2023-02-16T06:03:33.654Z,100568.97
2023-02-16T06:06:02.014Z,100550.16
2023-02-16T06:08:30.706Z,100575.66
2023-02-16T06:10:57.813Z,100542.94
2023-02-16T06:13:25.540Z,100604.47
2023-02-16T06:15:55.139Z,100549.66
2023-02-16T06:18:22.924Z,100584.88
2023-02-16T06:20:49.620Z,100575.47
2023-02-16T06:23:17.205Z,100596.13
2023-02-16T06:25:45.914Z,100551.28
2023-02-16T06:28:12.589Z,100559.72
2023-02-16T06:30:39.360Z,100574.78
2023-02-16T06:33:06.040Z,100538.19
2023-02-16T06:35:32.758Z,100516.91
2023-02-16T06:37:59.534Z,100553.59
2023-02-16T06:40:26.812Z,100595.50
2023-02-16T06:42:53.546Z,100521.91
2023-02-16T06:45:20.210Z,100558.69
2023-02-16T06:47:46.909Z,100558.47
2023-02-16T06:50:14.657Z,100524.25
2023-02-16T06:52:41.439Z,100534.31
2023-02-16T06:55:08.610Z,100568.56
2023-02-16T06:57:35.340Z,100569.16
2023-02-16T07:00:02.321Z,100536.44
2023-02-16T07:02:29.009Z,100558.75
2023-02-16T07:04:55.735Z,100553.72
2023-02-16T07:07:22.411Z,100600.78
2023-02-16T07:09:49.089Z,100554.72
2023-02-16T07:12:15.915Z,100549.53
2023-02-16T07:14:44.151Z,100570.03
2023-02-16T07:17:11.106Z,100539.50
2023-02-16T07:19:37.866Z,100568.34
2023-02-16T07:22:05.480Z,100534.06
2023-02-16T07:24:32.295Z,100516.09
2023-02-16T07:26:59.076Z,100560.34
2023-02-16T07:29:25.747Z,100552.13
2023-02-16T07:31:53.675Z,100554.53
2023-02-16T07:34:21.974Z,100527.94
2023-02-16T07:36:48.910Z,100583.41
2023-02-16T07:39:15.656Z,100581.69
2023-02-16T07:41:42.417Z,100525.94
2023-02-16T07:44:09.196Z,100512.81
2023-02-16T07:46:35.963Z,100518.03
2023-02-16T07:49:03.070Z,100592.34
2023-02-16T07:51:31.274Z,100584.53
2023-02-16T07:53:59.987Z,100558.09
2023-02-16T07:56:31.880Z,100517.13
2023-02-16T07:59:00.040Z,100561.56
2023-02-16T08:01:27.259Z,100586.19
2023-02-16T08:03:54.160Z,100587.13
2023-02-16T08:06:20.960Z,100545.53
2023-02-16T08:08:47.778Z,100550.50
2023-02-16T08:11:17.452Z,100517.28
2023-02-16T08:13:44.392Z,100553.41
2023-02-16T08:16:14.280Z,100588.47
2023-02-16T08:18:42.011Z,100606.41
2023-02-16T08:21:18.212Z,100577.38
2023-02-16T08:23:47.921Z,100606.31
2023-02-16T08:26:18.554Z,100550.00
2023-02-16T08:28:47.214Z,100578.94
2023-02-16T08:31:17.049Z,100557.38
2023-02-16T08:33:44.110Z,100569.97
2023-02-16T08:36:25.095Z,100569.88
2023-02-16T08:38:53.286Z,100546.53
2023-02-16T08:41:22.014Z,100549.03
2023-02-16T08:43:49.976Z,100611.44
2023-02-16T08:46:17.958Z,100614.34
2023-02-16T08:48:45.458Z,100601.50
2023-02-16T08:51:17.775Z,100614.91
2023-02-16T08:53:47.731Z,100537.06
2023-02-16T08:56:16.910Z,100614.91
2023-02-16T08:58:43.936Z,100593.59
2023-02-16T09:01:11.869Z,100551.38
2023-02-16T09:03:43.623Z,100614.31
2023-02-16T09:06:12.385Z,100597.97
2023-02-16T09:08:39.319Z,100568.00
2023-02-16T09:11:16.472Z,100588.59
2023-02-16T09:13:43.470Z,100594.44
2023-02-16T09:16:13.694Z,100621.63
2023-02-16T09:18:41.006Z,100569.38
2023-02-16T09:21:11.848Z,100613.59
2023-02-16T09:23:40.545Z,100521.09
2023-02-16T09:26:09.848Z,100589.19
2023-02-16T09:28:40.637Z,100587.16
2023-02-16T09:31:12.900Z,100599.88
2023-02-16T09:33:41.764Z,100557.16
2023-02-16T09:36:11.460Z,100543.03
2023-02-16T09:38:42.898Z,100539.50
2023-02-16T09:41:18.424Z,100588.84
2023-02-16T09:43:55.977Z,100524.69
2023-02-16T09:46:25.313Z,100575.34
2023-02-16T09:48:53.203Z,100511.41
2023-02-16T09:51:34.931Z,100547.69
2023-02-16T09:54:34.833Z,100575.72
2023-02-16T09:57:14.236Z,100534.16
2023-02-16T10:00:10.286Z,100570.81
2023-02-16T10:02:46.745Z,100547.63
2023-02-16T10:05:25.751Z,100558.25
2023-02-16T10:08:14.594Z,100549.66
2023-02-16T10:11:07.654Z,100551.28
2023-02-16T10:13:53.510Z,100494.81
2023-02-16T10:16:27.319Z,100489.56
2023-02-16T10:18:56.167Z,100490.94
2023-02-16T10:21:27.650Z,100491.09
2023-02-16T10:24:05.871Z,100546.59
2023-02-16T10:26:38.611Z,100540.19
2023-02-16T10:29:14.378Z,100496.16
2023-02-16T10:31:44.418Z,100540.56
2023-02-16T10:34:23.506Z,100539.47
2023-02-16T10:37:09.643Z,100541.47
2023-02-16T10:39:48.471Z,100521.22
2023-02-16T10:42:18.064Z,100540.41
2023-02-16T10:44:51.379Z,100491.03
2023-02-16T10:47:39.945Z,100537.44
2023-02-16T10:50:37.952Z,100477.19
2023-02-16T10:53:13.399Z,100502.13
2023-02-16T10:55:40.305Z,100516.09
2023-02-16T10:58:17.337Z,100516.47
2023-02-16T11:01:15.795Z,100503.72
2023-02-16T11:03:48.921Z,100464.28
2023-02-16T11:06:19.279Z,100496.41
2023-02-16T11:08:52.010Z,100470.28
2023-02-16T11:11:20.076Z,100494.75
2023-02-16T11:13:57.453Z,100447.78
2023-02-16T11:16:24.723Z,100452.25
2023-02-16T11:19:08.989Z,100476.00
2023-02-16T11:21:43.152Z,100487.91
2023-02-16T11:24:13.524Z,100500.22
2023-02-16T11:26:40.381Z,100437.66
2023-02-16T11:29:20.393Z,100506.13
2023-02-16T11:31:47.221Z,100456.97
2023-02-16T11:34:26.598Z,100496.59
2023-02-16T11:37:03.381Z,100490.56
2023-02-16T11:39:36.429Z,100500.63
2023-02-16T11:42:08.419Z,100413.03
2023-02-16T11:44:48.954Z,100479.97
2023-02-16T11:47:30.297Z,100420.97
2023-02-16T11:50:33.642Z,100486.66
2023-02-16T11:53:23.757Z,100490.13
2023-02-16T11:55:51.336Z,100412.88
2023-02-16T11:58:28.009Z,100480.47
2023-02-16T12:01:34.915Z,100463.66
2023-02-16T12:04:18.359Z,100421.50
2023-02-16T12:06:53.568Z,100468.00
2023-02-16T12:09:36.905Z,100468.63
2023-02-16T12:12:14.930Z,100430.19
2023-02-16T12:14:58.899Z,100439.97
2023-02-16T12:17:43.194Z,100402.84
2023-02-16T12:20:34.206Z,100477.50
2023-02-16T12:23:06.940Z,100472.75
2023-02-16T12:25:42.194Z,100421.09
2023-02-16T12:28:20.415Z,100466.28
2023-02-16T12:31:02.488Z,100479.50
2023-02-16T12:33:48.110Z,100473.88
2023-02-16T12:36:45.334Z,100476.56
2023-02-16T12:39:29.887Z,100427.06
2023-02-16T12:42:21.084Z,100474.75
2023-02-16T12:44:51.830Z,100452.25
2023-02-16T12:47:32.422Z,100426.78
2023-02-16T12:50:03.618Z,100440.19
2023-02-16T12:52:42.752Z,100451.84
2023-02-16T12:55:26.729Z,100447.72
2023-02-16T12:58:25.993Z,100428.59
2023-02-16T13:01:07.657Z,100402.41
2023-02-16T13:03:55.517Z,100446.03
2023-02-16T13:06:37.651Z,100453.88
2023-02-16T13:09:25.138Z,100449.28
2023-02-16T13:12:21.465Z,100420.63
2023-02-16T13:14:58.717Z,100421.53
2023-02-16T13:17:33.358Z,100404.25
2023-02-16T13:20:00.469Z,100371.66
2023-02-16T13:22:46.113Z,100378.16
2023-02-16T13:25:33.508Z,100348.19
2023-02-16T13:28:39.912Z,100399.63
2023-02-16T13:31:24.191Z,100361.13
2023-02-16T13:34:04.192Z,100389.63
2023-02-16T13:36:51.068Z,100382.78
2023-02-16T13:39:28.996Z,100371.25
2023-02-16T13:42:17.594Z,100386.56
2023-02-16T13:45:03.139Z,100378.34
2023-02-16T13:47:33.636Z,100336.84
2023-02-16T13:50:05.100Z,100376.47
2023-02-16T13:52:39.870Z,100335.00
2023-02-16T13:55:21.693Z,100356.41
2023-02-16T13:57:52.068Z,100364.13
2023-02-16T14:00:38.963Z,100371.19
2023-02-16T14:03:18.945Z,100364.84
2023-02-16T14:05:53.039Z,100336.97
2023-02-16T14:08:30.537Z,100354.16
2023-02-16T14:11:04.322Z,100293.63
2023-02-16T14:13:45.684Z,100348.00
2023-02-16T14:16:18.590Z,100348.78
2023-02-16T14:18:55.986Z,100346.25
2023-02-16T14:21:42.156Z,100302.66
2023-02-16T14:24:23.716Z,100297.75
2023-02-16T14:26:59.471Z,100286.03
2023-02-16T14:29:43.006Z,100294.53
2023-02-16T14:32:09.642Z,100330.63
2023-02-16T14:35:08.338Z,100322.25
2023-02-16T14:37:39.726Z,100312.81
2023-02-16T14:40:35.025Z,100306.16
2023-02-16T14:43:15.750Z,100319.00
2023-02-16T14:46:20.136Z,100319.50
2023-02-16T14:48:59.211Z,100262.69
2023-02-16T14:51:44.588Z,100299.72
2023-02-16T14:54:30.672Z,100304.47
2023-02-16T14:57:13.188Z,100316.63
2023-02-16T14:59:52.913Z,100282.13
2023-02-16T15:02:34.891Z,100238.63
2023-02-16T15:05:17.870Z,100301.28
2023-02-16T15:07:50.623Z,100283.84
2023-02-16T15:10:26.651Z,100254.28
2023-02-16T15:12:55.496Z,100261.28
2023-02-16T15:15:40.921Z,100285.41
2023-02-16T15:18:15.468Z,100275.00
2023-02-16T15:20:45.986Z,100257.47
2023-02-16T15:23:22.963Z,100245.31
2023-02-16T15:26:05.914Z,100277.63
2023-02-16T15:28:36.346Z,100237.03
2023-02-16T15:31:06.847Z,100220.13
2023-02-16T15:33:42.385Z,100232.13
2023-02-16T15:36:15.179Z,100242.84
2023-02-16T15:39:16.053Z,100260.34
2023-02-16T15:41:49.689Z,100241.31
2023-02-16T15:44:36.040Z,100251.75
2023-02-16T15:47:13.893Z,100185.00
2023-02-16T15:49:41.337Z,100250.13
2023-02-16T15:52:21.687Z,100215.44
2023-02-16T15:54:49.922Z,100238.16
2023-02-16T15:57:31.490Z,100234.56
2023-02-16T16:00:03.627Z,100230.63
2023-02-16T16:02:38.588Z,100201.06
2023-02-16T16:05:09.609Z,100182.78
2023-02-16T16:07:41.886Z,100143.56
2023-02-16T16:10:18.104Z,100195.09
2023-02-16T16:12:45.715Z,100169.34
2023-02-16T16:15:23.079Z,100125.50
2023-02-16T16:17:52.754Z,100158.31
2023-02-16T16:20:22.440Z,100197.09
2023-02-16T16:22:57.181Z,100186.91
2023-02-16T16:25:37.233Z,100188.78
2023-02-16T16:28:08.221Z,100150.47
2023-02-16T16:30:36.948Z,100138.66
2023-02-16T16:33:05.388Z,100187.44
2023-02-16T16:35:44.147Z,100168.75
2023-02-16T16:38:28.209Z,100192.09
2023-02-16T16:41:01.795Z,100119.16
2023-02-16T16:43:31.302Z,100155.44
2023-02-16T16:46:12.311Z,100141.97
2023-02-16T16:48:44.415Z,100100.75
2023-02-16T16:51:23.341Z,100136.19
2023-02-16T16:54:01.051Z,100178.22
2023-02-16T16:56:35.607Z,100181.28
2023-02-16T16:59:02.880Z,100138.88
2023-02-16T17:01:30.291Z,100133.06
2023-02-16T17:03:57.246Z,100134.88
2023-02-16T17:06:24.981Z,100136.31
2023-02-16T17:08:52.082Z,100168.56
2023-02-16T17:11:33.066Z,100177.56
2023-02-16T17:14:09.775Z,100126.13
2023-02-16T17:16:40.827Z,100177.22
2023-02-16T17:19:07.680Z,100075.69
2023-02-16T17:21:34.393Z,100090.09
2023-02-16T17:24:01.110Z,100119.75
2023-02-16T17:26:27.823Z,100109.44
2023-02-16T17:28:54.521Z,100085.00
2023-02-16T17:31:21.378Z,100103.31
2023-02-16T17:33:48.181Z,100059.38
2023-02-16T17:36:16.397Z,100097.63
2023-02-16T17:38:44.207Z,100110.72
2023-02-16T17:41:22.041Z,100155.59
2023-02-16T17:43:49.335Z,100108.47
2023-02-16T17:46:17.478Z,100113.63
2023-02-16T17:48:44.430Z,100111.00
2023-02-16T17:51:19.837Z,100123.69
2023-02-16T17:53:46.598Z,100082.84
2023-02-16T17:56:22.240Z,100126.81
2023-02-16T17:58:49.434Z,100056.88
2023-02-16T18:01:17.310Z,100120.38
2023-02-16T18:03:44.439Z,100059.31
2023-02-16T18:06:17.077Z,100123.81
2023-02-16T18:08:44.162Z,100070.53
2023-02-16T18:11:11.598Z,100106.22
2023-02-16T18:13:38.755Z,100127.84
2023-02-16T18:16:07.661Z,100107.03
2023-02-16T18:18:36.914Z,100078.31
2023-02-16T18:21:03.904Z,100093.13
2023-02-16T18:23:31.352Z,100048.47
2023-02-16T18:25:58.113Z,100042.69
2023-02-16T18:28:33.589Z,100103.31
2023-02-16T18:31:02.247Z,100097.97
2023-02-16T18:33:29.028Z,100055.69
2023-02-16T18:35:57.690Z,100117.94
2023-02-16T18:38:25.204Z,100077.78
2023-02-16T18:40:54.238Z,100071.72
2023-02-16T18:43:21.354Z,100101.13
2023-02-16T18:45:48.399Z,100070.06
2023-02-16T18:48:15.170Z,100029.44
2023-02-16T18:50:41.849Z,100046.31
2023-02-16T18:53:08.665Z,100014.25
2023-02-16T18:55:35.818Z,100020.56
2023-02-16T18:58:07.465Z,100009.09
2023-02-16T19:00:34.921Z,100022.66
2023-02-16T19:03:01.666Z,100047.94
2023-02-16T19:05:28.417Z,100011.72
2023-02-16T19:07:55.148Z,100028.22
2023-02-16T19:10:21.899Z,99992.00
2023-02-16T19:12:48.731Z,100053.84
2023-02-16T19:15:15.570Z,100041.16
2023-02-16T19:17:42.663Z,100003.00
2023-02-16T19:20:12.332Z,100061.50
2023-02-16T19:22:39.127Z,100071.19
2023-02-16T19:25:07.790Z,100064.44
2023-02-16T19:27:35.254Z,100028.88
2023-02-16T19:30:03.343Z,100063.91
2023-02-16T19:32:31.056Z,99972.72
2023-02-16T19:34:58.114Z,100002.00
2023-02-16T19:37:24.929Z,99997.34
2023-02-16T19:39:52.306Z,100012.81
2023-02-16T19:42:20.157Z,100015.00
2023-02-16T19:44:47.028Z,99973.13
2023-02-16T19:47:13.724Z,99994.97
2023-02-16T19:49:40.437Z,99949.47
2023-02-16T19:52:07.351Z,99995.97
2023-02-16T19:54:37.513Z,100003.84
2023-02-16T19:57:05.176Z,100034.75
2023-02-16T19:59:32.749Z,99961.63
2023-02-16T20:01:59.582Z,100004.56
2023-02-16T20:04:26.268Z,99986.72
2023-02-16T20:06:54.528Z,99937.47
2023-02-16T20:09:22.424Z,99974.66
2023-02-16T20:11:49.496Z,99941.97
2023-02-16T20:14:16.270Z,99932.88
2023-02-16T20:16:43.902Z,99913.78
2023-02-16T20:19:11.132Z,99965.81
2023-02-16T20:21:38.150Z,99961.78
2023-02-16T20:24:05.570Z,99958.28
2023-02-16T20:26:39.159Z,99903.75
2023-02-16T20:29:07.661Z,99945.38
2023-02-16T20:31:40.847Z,99935.00
2023-02-16T20:34:08.002Z,99935.09
2023-02-16T20:36:35.557Z,99912.69
2023-02-16T20:39:02.503Z,99852.44
2023-02-16T20:41:29.225Z,99877.13
2023-02-16T20:43:55.965Z,99871.53
2023-02-16T20:46:23.989Z,99864.53
2023-02-16T20:48:51.053Z,99876.47
2023-02-16T20:51:18.693Z,99890.22
2023-02-16T20:53:45.669Z,99869.53
2023-02-16T20:56:20.596Z,99890.22
2023-02-16T20:58:49.799Z,99849.59
2023-02-16T21:01:25.929Z,99854.81
2023-02-16T21:03:54.372Z,99904.47
2023-02-16T21:06:22.343Z,99856.00
2023-02-16T21:08:49.226Z,99873.41
2023-02-16T21:11:16.481Z,99856.94
2023-02-16T21:13:43.735Z,99840.41
2023-02-16T21:16:11.213Z,99887.00
2023-02-16T21:18:40.367Z,99859.31
2023-02-16T21:21:08.514Z,99853.88
2023-02-16T21:23:35.752Z,99830.34
2023-02-16T21:26:05.392Z,99782.59
2023-02-16T21:28:33.075Z,99795.88
2023-02-16T21:31:09.848Z,99786.13
2023-02-16T21:33:37.099Z,99806.19
2023-02-16T21:36:08.493Z,99771.97
2023-02-16T21:38:35.673Z,99806.91
2023-02-16T21:41:25.312Z,99790.56
2023-02-16T21:43:57.372Z,99801.34
2023-02-16T21:46:24.845Z,99805.56
2023-02-16T21:48:52.021Z,99796.16
2023-02-16T21:51:24.958Z,99731.63
2023-02-16T21:53:53.315Z,99775.56
2023-02-16T21:56:26.046Z,99774.13
2023-02-16T21:58:52.910Z,99750.72
2023-02-16T22:01:22.110Z,99704.34
2023-02-16T22:03:48.930Z,99713.66
2023-02-16T22:06:15.670Z,99656.84
2023-02-16T22:08:42.307Z,99687.78
2023-02-16T22:11:12.140Z,99718.03
2023-02-16T22:13:39.486Z,99713.22
2023-02-16T22:16:25.854Z,99675.81
2023-02-16T22:19:08.782Z,99708.25
2023-02-16T22:21:37.615Z,99631.94
2023-02-16T22:24:05.596Z,99639.88
2023-02-16T22:26:34.772Z,99637.34
2023-02-16T22:29:06.692Z,99642.31
2023-02-16T22:31:34.424Z,99623.13
2023-02-16T22:34:05.081Z,99623.56
2023-02-16T22:36:32.848Z,99653.22
2023-02-16T22:38:59.810Z,99585.22
2023-02-16T22:41:26.972Z,99595.50
2023-02-16T22:43:55.289Z,99633.91
2023-02-16T22:46:23.268Z,99627.81
2023-02-16T22:48:50.840Z,99585.84
2023-02-16T22:51:18.295Z,99593.88
2023-02-16T22:53:45.846Z,99582.63
2023-02-16T22:56:18.302Z,99616.78
2023-02-16T22:58:46.068Z,99552.22
2023-02-16T23:01:15.282Z,99540.84
2023-02-16T23:03:42.765Z,99557.47
2023-02-16T23:06:34.351Z,99574.22
2023-02-16T23:09:06.290Z,99537.53
2023-02-16T23:11:34.652Z,99557.97
2023-02-16T23:14:01.519Z,99481.44
2023-02-16T23:16:28.974Z,99474.13
2023-02-16T23:18:57.479Z,99528.91
2023-02-16T23:21:27.229Z,99520.78
2023-02-16T23:23:54.641Z,99477.59
2023-02-16T23:26:23.898Z,99423.97
2023-02-16T23:28:53.567Z,99486.56
2023-02-16T23:31:22.030Z,99472.28
2023-02-16T23:33:49.567Z,99464.59
2023-02-16T23:36:16.457Z,99405.81
2023-02-16T23:38:43.136Z,99397.72
2023-02-16T23:41:12.947Z,99438.72
2023-02-16T23:43:39.958Z,99438.47
2023-02-16T23:46:07.880Z,99451.75
2023-02-16T23:48:35.365Z,99374.28
2023-02-16T23:51:02.253Z,99424.28
2023-02-16T23:53:29.188Z,99434.56
2023-02-16T23:56:05.517Z,99438.13
2023-02-16T23:58:37.543Z,99416.59
